sensor_id;sensor_type;location;lat;lon;timestamp;pressure;altitude;pressure_sealevel;temperature
24201;BMP280;2801;50.972;7.856;2022-08-27T00:01:37;97482.31;;;20.40
24201;BMP280;2801;50.972;7.856;2022-08-27T00:04:05;97485.03;;;20.37
24201;BMP280;2801;50.972;7.856;2022-08-27T00:06:32;97481.56;;;20.40
24201;BMP280;2801;50.972;7.856;2022-08-27T00:08:58;97488.19;;;20.42
24201;BMP280;2801;50.972;7.856;2022-08-27T00:11:25;97488.56;;;20.41
24201;BMP280;2801;50.972;7.856;2022-08-27T00:13:53;97487.78;;;20.40
24201;BMP280;2801;50.972;7.856;2022-08-27T00:16:20;97489.31;;;20.38
24201;BMP280;2801;50.972;7.856;2022-08-27T00:18:47;97488.94;;;20.36
24201;BMP280;2801;50.972;7.856;2022-08-27T00:21:15;97481.53;;;20.36
24201;BMP280;2801;50.972;7.856;2022-08-27T00:23:43;97483.09;;;20.44
24201;BMP280;2801;50.972;7.856;2022-08-27T00:26:11;97482.72;;;20.39
24201;BMP280;2801;50.972;7.856;2022-08-27T00:28:39;97481.16;;;20.34
24201;BMP280;2801;50.972;7.856;2022-08-27T00:31:07;97487.75;;;20.30
24201;BMP280;2801;50.972;7.856;2022-08-27T00:33:38;97482.31;;;20.30
24201;BMP280;2801;50.972;7.856;2022-08-27T00:36:06;97485.00;;;20.23
24201;BMP280;2801;50.972;7.856;2022-08-27T00:38:34;97483.44;;;20.18
24201;BMP280;2801;50.972;7.856;2022-08-27T00:41:02;97477.59;;;20.16
24201;BMP280;2801;50.972;7.856;2022-08-27T00:43:43;97486.53;;;20.13
24201;BMP280;2801;50.972;7.856;2022-08-27T00:46:22;97482.25;;;20.12
24201;BMP280;2801;50.972;7.856;2022-08-27T00:48:54;97482.63;;;20.11
24201;BMP280;2801;50.972;7.856;2022-08-27T00:51:23;97485.38;;;20.11
24201;BMP280;2801;50.972;7.856;2022-08-27T00:53:53;97488.09;;;20.11
24201;BMP280;2801;50.972;7.856;2022-08-27T00:56:25;97484.56;;;20.10
24201;BMP280;2801;50.972;7.856;2022-08-27T00:58:55;97476.38;;;20.07
24201;BMP280;2801;50.972;7.856;2022-08-27T01:01:29;97488.88;;;20.15
24201;BMP280;2801;50.972;7.856;2022-08-27T01:04:04;97493.56;;;20.18
24201;BMP280;2801;50.972;7.856;2022-08-27T01:06:35;97486.94;;;20.19
24201;BMP280;2801;50.972;7.856;2022-08-27T01:09:13;97486.94;;;20.19
24201;BMP280;2801;50.972;7.856;2022-08-27T01:11:44;97488.88;;;20.18
24201;BMP280;2801;50.972;7.856;2022-08-27T01:14:14;97493.53;;;20.14
24201;BMP280;2801;50.972;7.856;2022-08-27T01:16:49;97492.72;;;20.10
24201;BMP280;2801;50.972;7.856;2022-08-27T01:19:33;97490.38;;;20.09
24201;BMP280;2801;50.972;7.856;2022-08-27T01:22:39;97490.00;;;20.07
24201;BMP280;2801;50.972;7.856;2022-08-27T01:25:13;97489.97;;;20.03
24201;BMP280;2801;50.972;7.856;2022-08-27T01:27:43;97488.03;;;20.00
24201;BMP280;2801;50.972;7.856;2022-08-27T01:30:14;97468.16;;;19.89
24201;BMP280;2801;50.972;7.856;2022-08-27T01:32:42;97487.19;;;19.93
24201;BMP280;2801;50.972;7.856;2022-08-27T01:35:12;97480.59;;;19.90
24201;BMP280;2801;50.972;7.856;2022-08-27T01:37:43;97484.84;;;19.84
24201;BMP280;2801;50.972;7.856;2022-08-27T01:40:11;97486.38;;;19.78
24201;BMP280;2801;50.972;7.856;2022-08-27T01:42:47;97482.06;;;19.70
24201;BMP280;2801;50.972;7.856;2022-08-27T01:45:24;97488.22;;;19.64
24201;BMP280;2801;50.972;7.856;2022-08-27T01:47:52;97476.94;;;19.58
24201;BMP280;2801;50.972;7.856;2022-08-27T01:50:24;97483.16;;;19.55
24201;BMP280;2801;50.972;7.856;2022-08-27T01:52:53;97484.28;;;19.51
24201;BMP280;2801;50.972;7.856;2022-08-27T01:55:25;97491.25;;;19.48
24201;BMP280;2801;50.972;7.856;2022-08-27T01:57:54;97489.69;;;19.44
24201;BMP280;2801;50.972;7.856;2022-08-27T02:00:33;97489.63;;;19.37
24201;BMP280;2801;50.972;7.856;2022-08-27T02:03:01;97488.44;;;19.34
24201;BMP280;2801;50.972;7.856;2022-08-27T02:05:29;97485.72;;;19.31
24201;BMP280;2801;50.972;7.856;2022-08-27T02:07:56;97486.88;;;19.30
24201;BMP280;2801;50.972;7.856;2022-08-27T02:10:31;97481.78;;;19.25
24201;BMP280;2801;50.972;7.856;2022-08-27T02:12:59;97482.13;;;19.23
24201;BMP280;2801;50.972;7.856;2022-08-27T02:15:27;97485.16;;;19.15
24201;BMP280;2801;50.972;7.856;2022-08-27T02:17:55;97482.47;;;19.15
24201;BMP280;2801;50.972;7.856;2022-08-27T02:20:22;97484.00;;;19.12
24201;BMP280;2801;50.972;7.856;2022-08-27T02:22:54;97488.25;;;19.10
24201;BMP280;2801;50.972;7.856;2022-08-27T02:25:21;97477.38;;;19.10
24201;BMP280;2801;50.972;7.856;2022-08-27T02:27:49;97483.56;;;19.07
24201;BMP280;2801;50.972;7.856;2022-08-27T02:30:21;97480.47;;;19.08
24201;BMP280;2801;50.972;7.856;2022-08-27T02:32:48;97468.00;;;19.04
24201;BMP280;2801;50.972;7.856;2022-08-27T02:35:17;97477.38;;;19.10
24201;BMP280;2801;50.972;7.856;2022-08-27T02:37:45;97478.56;;;19.12
24201;BMP280;2801;50.972;7.856;2022-08-27T02:40:15;97484.78;;;19.13
24201;BMP280;2801;50.972;7.856;2022-08-27T02:42:43;97468.47;;;19.13
24201;BMP280;2801;50.972;7.856;2022-08-27T02:45:12;97468.88;;;19.15
24201;BMP280;2801;50.972;7.856;2022-08-27T02:47:40;97472.38;;;19.12
24201;BMP280;2801;50.972;7.856;2022-08-27T02:50:08;97474.28;;;19.08
24201;BMP280;2801;50.972;7.856;2022-08-27T02:52:36;97478.94;;;19.11
24201;BMP280;2801;50.972;7.856;2022-08-27T02:55:04;97481.63;;;19.07
24201;BMP280;2801;50.972;7.856;2022-08-27T02:57:32;97471.56;;;19.08
24201;BMP280;2801;50.972;7.856;2022-08-27T03:00:06;97475.41;;;19.07
24201;BMP280;2801;50.972;7.856;2022-08-27T03:02:35;97478.56;;;19.09
24201;BMP280;2801;50.972;7.856;2022-08-27T03:05:03;97467.63;;;19.02
24201;BMP280;2801;50.972;7.856;2022-08-27T03:07:30;97488.19;;;19.03
24201;BMP280;2801;50.972;7.856;2022-08-27T03:09:57;97474.22;;;19.01
24201;BMP280;2801;50.972;7.856;2022-08-27T03:12:24;97480.75;;;18.93
24201;BMP280;2801;50.972;7.856;2022-08-27T03:14:51;97474.47;;;18.85
24201;BMP280;2801;50.972;7.856;2022-08-27T03:17:18;97482.66;;;18.89
24201;BMP280;2801;50.972;7.856;2022-08-27T03:20:04;97481.09;;;18.88
24201;BMP280;2801;50.972;7.856;2022-08-27T03:22:33;97480.34;;;18.87
24201;BMP280;2801;50.972;7.856;2022-08-27T03:25:02;97478.31;;;18.81
24201;BMP280;2801;50.972;7.856;2022-08-27T03:27:29;97477.19;;;18.82
24201;BMP280;2801;50.972;7.856;2022-08-27T03:29:56;97479.91;;;18.82
24201;BMP280;2801;50.972;7.856;2022-08-27T03:32:29;97474.09;;;18.83
24201;BMP280;2801;50.972;7.856;2022-08-27T03:34:57;97472.94;;;18.84
24201;BMP280;2801;50.972;7.856;2022-08-27T03:37:25;97475.22;;;18.82
24201;BMP280;2801;50.972;7.856;2022-08-27T03:39:52;97477.94;;;18.82
24201;BMP280;2801;50.972;7.856;2022-08-27T03:42:20;97477.13;;;18.78
24201;BMP280;2801;50.972;7.856;2022-08-27T03:44:47;97479.84;;;18.78
24201;BMP280;2801;50.972;7.856;2022-08-27T03:47:14;97479.84;;;18.78
24201;BMP280;2801;50.972;7.856;2022-08-27T03:49:41;97472.88;;;18.81
24201;BMP280;2801;50.972;7.856;2022-08-27T03:52:09;97474.84;;;18.80
24201;BMP280;2801;50.972;7.856;2022-08-27T03:54:37;97476.38;;;18.78
24201;BMP280;2801;50.972;7.856;2022-08-27T03:57:05;97473.22;;;18.76
24201;BMP280;2801;50.972;7.856;2022-08-27T03:59:32;97478.66;;;18.76
24201;BMP280;2801;50.972;7.856;2022-08-27T04:02:00;97484.09;;;18.76
24201;BMP280;2801;50.972;7.856;2022-08-27T04:04:27;97473.22;;;18.76
24201;BMP280;2801;50.972;7.856;2022-08-27T04:06:54;97477.06;;;18.68
24201;BMP280;2801;50.972;7.856;2022-08-27T04:09:25;97471.94;;;18.59
24201;BMP280;2801;50.972;7.856;2022-08-27T04:11:52;97477.34;;;18.56
24201;BMP280;2801;50.972;7.856;2022-08-27T04:14:19;97478.06;;;18.53
24201;BMP280;2801;50.972;7.856;2022-08-27T04:16:54;97473.44;;;18.53
24201;BMP280;2801;50.972;7.856;2022-08-27T04:19:23;97475.72;;;18.48
24201;BMP280;2801;50.972;7.856;2022-08-27T04:21:59;97468.25;;;18.38
24201;BMP280;2801;50.972;7.856;2022-08-27T04:24:27;97483.00;;;18.40
24201;BMP280;2801;50.972;7.856;2022-08-27T04:26:54;97480.25;;;18.37
24201;BMP280;2801;50.972;7.856;2022-08-27T04:29:21;97475.59;;;18.37
24201;BMP280;2801;50.972;7.856;2022-08-27T04:31:48;97480.28;;;18.40
24201;BMP280;2801;50.972;7.856;2022-08-27T04:34:16;97476.75;;;18.40
24201;BMP280;2801;50.972;7.856;2022-08-27T04:36:44;97475.63;;;18.41
24201;BMP280;2801;50.972;7.856;2022-08-27T04:39:13;97486.50;;;18.44
24201;BMP280;2801;50.972;7.856;2022-08-27T04:41:41;97486.50;;;18.41
24201;BMP280;2801;50.972;7.856;2022-08-27T04:44:10;97485.69;;;18.37
24201;BMP280;2801;50.972;7.856;2022-08-27T04:46:39;97480.16;;;18.33
24201;BMP280;2801;50.972;7.856;2022-08-27T04:49:14;97492.56;;;18.34
24201;BMP280;2801;50.972;7.856;2022-08-27T04:51:41;97492.25;;;18.36
24201;BMP280;2801;50.972;7.856;2022-08-27T04:54:09;97489.59;;;18.43
24201;BMP280;2801;50.972;7.856;2022-08-27T04:56:37;97489.22;;;18.41
24201;BMP280;2801;50.972;7.856;2022-08-27T04:59:07;97493.50;;;18.45
24201;BMP280;2801;50.972;7.856;2022-08-27T05:01:38;97491.19;;;18.44
24201;BMP280;2801;50.972;7.856;2022-08-27T05:04:07;97488.84;;;18.42
24201;BMP280;2801;50.972;7.856;2022-08-27T05:06:36;97493.47;;;18.42
24201;BMP280;2801;50.972;7.856;2022-08-27T05:09:04;97490.75;;;18.42
24201;BMP280;2801;50.972;7.856;2022-08-27T05:11:32;97491.94;;;18.41
24201;BMP280;2801;50.972;7.856;2022-08-27T05:14:06;97494.63;;;18.41
24201;BMP280;2801;50.972;7.856;2022-08-27T05:16:34;97498.53;;;18.43
24201;BMP280;2801;50.972;7.856;2022-08-27T05:19:06;97506.25;;;18.41
24201;BMP280;2801;50.972;7.856;2022-08-27T05:21:38;97498.47;;;18.40
24201;BMP280;2801;50.972;7.856;2022-08-27T05:24:07;97506.25;;;18.41
24201;BMP280;2801;50.972;7.856;2022-08-27T05:26:35;97499.28;;;18.40
24201;BMP280;2801;50.972;7.856;2022-08-27T05:29:04;97502.41;;;18.42
24201;BMP280;2801;50.972;7.856;2022-08-27T05:31:32;97507.47;;;18.44
24201;BMP280;2801;50.972;7.856;2022-08-27T05:34:01;97512.13;;;18.47
24201;BMP280;2801;50.972;7.856;2022-08-27T05:36:36;97499.72;;;18.46
24201;BMP280;2801;50.972;7.856;2022-08-27T05:39:13;97500.50;;;18.46
24201;BMP280;2801;50.972;7.856;2022-08-27T05:41:40;97509.75;;;18.42
24201;BMP280;2801;50.972;7.856;2022-08-27T05:44:09;97503.16;;;18.43
24201;BMP280;2801;50.972;7.856;2022-08-27T05:46:56;97507.50;;;18.47
24201;BMP280;2801;50.972;7.856;2022-08-27T05:49:23;97512.56;;;18.49
24201;BMP280;2801;50.972;7.856;2022-08-27T05:51:50;97516.44;;;18.48
24201;BMP280;2801;50.972;7.856;2022-08-27T05:54:17;97512.13;;;18.47
24201;BMP280;2801;50.972;7.856;2022-08-27T05:56:48;97513.31;;;18.49
24201;BMP280;2801;50.972;7.856;2022-08-27T05:59:16;97512.91;;;18.47
24201;BMP280;2801;50.972;7.856;2022-08-27T06:02:03;97516.81;;;18.50
24201;BMP280;2801;50.972;7.856;2022-08-27T06:04:32;97533.53;;;18.52
24201;BMP280;2801;50.972;7.856;2022-08-27T06:06:58;97512.19;;;18.50
24201;BMP280;2801;50.972;7.856;2022-08-27T06:09:27;97518.44;;;18.54
24201;BMP280;2801;50.972;7.856;2022-08-27T06:11:58;97524.31;;;18.60
24201;BMP280;2801;50.972;7.856;2022-08-27T06:14:26;97524.31;;;18.60
24201;BMP280;2801;50.972;7.856;2022-08-27T06:16:54;97526.28;;;18.63
24201;BMP280;2801;50.972;7.856;2022-08-27T06:19:22;97518.09;;;18.59
24201;BMP280;2801;50.972;7.856;2022-08-27T06:21:49;97526.19;;;18.56
24201;BMP280;2801;50.972;7.856;2022-08-27T06:24:38;97522.63;;;18.48
24201;BMP280;2801;50.972;7.856;2022-08-27T06:27:09;97538.50;;;18.46
24201;BMP280;2801;50.972;7.856;2022-08-27T06:29:38;97538.47;;;18.43
24201;BMP280;2801;50.972;7.856;2022-08-27T06:32:05;97540.72;;;18.37
24201;BMP280;2801;50.972;7.856;2022-08-27T06:34:33;97534.53;;;18.37
24201;BMP280;2801;50.972;7.856;2022-08-27T06:37:00;97538.38;;;18.36
24201;BMP280;2801;50.972;7.856;2022-08-27T06:39:27;97533.28;;;18.34
24201;BMP280;2801;50.972;7.856;2022-08-27T06:41:56;97537.13;;;18.30
24201;BMP280;2801;50.972;7.856;2022-08-27T06:44:23;97538.66;;;18.27
24201;BMP280;2801;50.972;7.856;2022-08-27T06:46:51;97541.38;;;18.27
24201;BMP280;2801;50.972;7.856;2022-08-27T06:49:17;97539.84;;;18.30
24201;BMP280;2801;50.972;7.856;2022-08-27T06:51:46;97534.41;;;18.30
24201;BMP280;2801;50.972;7.856;2022-08-27T06:54:15;97540.25;;;18.32
24201;BMP280;2801;50.972;7.856;2022-08-27T06:56:43;97534.97;;;18.42
24201;BMP280;2801;50.972;7.856;2022-08-27T06:59:16;97536.88;;;18.38
24201;BMP280;2801;50.972;7.856;2022-08-27T07:01:48;97536.09;;;18.38
24201;BMP280;2801;50.972;7.856;2022-08-27T07:04:23;97541.09;;;18.36
24201;BMP280;2801;50.972;7.856;2022-08-27T07:06:58;97542.19;;;18.31
24201;BMP280;2801;50.972;7.856;2022-08-27T07:09:25;97541.41;;;18.31
24201;BMP280;2801;50.972;7.856;2022-08-27T07:11:52;97541.41;;;18.31
24201;BMP280;2801;50.972;7.856;2022-08-27T07:14:20;97539.06;;;18.29
24201;BMP280;2801;50.972;7.856;2022-08-27T07:16:47;97536.72;;;18.27
24201;BMP280;2801;50.972;7.856;2022-08-27T07:19:17;97537.88;;;18.27
24201;BMP280;2801;50.972;7.856;2022-08-27T07:21:44;97535.25;;;18.34
24201;BMP280;2801;50.972;7.856;2022-08-27T07:24:11;97531.03;;;18.36
24201;BMP280;2801;50.972;7.856;2022-08-27T07:26:41;97532.53;;;18.34
24201;BMP280;2801;50.972;7.856;2022-08-27T07:29:12;97530.66;;;18.38
24201;BMP280;2801;50.972;7.856;2022-08-27T07:31:41;97539.97;;;18.37
24201;BMP280;2801;50.972;7.856;2022-08-27T07:34:09;97540.34;;;18.39
24201;BMP280;2801;50.972;7.856;2022-08-27T07:36:36;97531.91;;;18.44
24201;BMP280;2801;50.972;7.856;2022-08-27T07:39:05;97535.09;;;18.53
24201;BMP280;2801;50.972;7.856;2022-08-27T07:41:33;97532.16;;;18.68
24201;BMP280;2801;50.972;7.856;2022-08-27T07:44:19;97530.63;;;18.71
24201;BMP280;2801;50.972;7.856;2022-08-27T07:47:00;97534.53;;;18.77
24201;BMP280;2801;50.972;7.856;2022-08-27T07:49:28;97532.25;;;18.82
24201;BMP280;2801;50.972;7.856;2022-08-27T07:51:55;97530.78;;;18.92
24201;BMP280;2801;50.972;7.856;2022-08-27T07:54:22;97534.00;;;19.01
24201;BMP280;2801;50.972;7.856;2022-08-27T07:56:51;97535.97;;;19.07
24201;BMP280;2801;50.972;7.856;2022-08-27T07:59:23;97537.97;;;19.14
24201;BMP280;2801;50.972;7.856;2022-08-27T08:01:52;97538.41;;;19.19
24201;BMP280;2801;50.972;7.856;2022-08-27T08:04:20;97545.81;;;19.22
24201;BMP280;2801;50.972;7.856;2022-08-27T08:06:49;97540.00;;;19.24
24201;BMP280;2801;50.972;7.856;2022-08-27T08:09:18;97545.53;;;19.34
24201;BMP280;2801;50.972;7.856;2022-08-27T08:11:45;97542.13;;;19.44
24201;BMP280;2801;50.972;7.856;2022-08-27T08:14:12;97544.84;;;19.48
24201;BMP280;2801;50.972;7.856;2022-08-27T08:16:39;97548.75;;;19.50
24201;BMP280;2801;50.972;7.856;2022-08-27T08:19:06;97547.63;;;19.55
24201;BMP280;2801;50.972;7.856;2022-08-27T08:21:35;97548.78;;;19.54
24201;BMP280;2801;50.972;7.856;2022-08-27T08:24:04;97549.13;;;19.49
24201;BMP280;2801;50.972;7.856;2022-08-27T08:26:31;97555.34;;;19.46
24201;BMP280;2801;50.972;7.856;2022-08-27T08:28:58;97554.56;;;19.45
24201;BMP280;2801;50.972;7.856;2022-08-27T08:31:26;97559.19;;;19.45
24201;BMP280;2801;50.972;7.856;2022-08-27T08:33:53;97559.97;;;19.42
24201;BMP280;2801;50.972;7.856;2022-08-27T08:36:20;97568.50;;;19.40
24201;BMP280;2801;50.972;7.856;2022-08-27T08:38:47;97562.28;;;19.40
24201;BMP280;2801;50.972;7.856;2022-08-27T08:43:59;97567.72;;;19.40
24201;BMP280;2801;50.972;7.856;2022-08-27T08:46:49;97571.94;;;19.34
24201;BMP280;2801;50.972;7.856;2022-08-27T08:49:48;97558.59;;;19.18
24201;BMP280;2801;50.972;7.856;2022-08-27T08:58:11;97585.19;;;19.39
24201;BMP280;2801;50.972;7.856;2022-08-27T09:00:42;97578.97;;;19.38
24201;BMP280;2801;50.972;7.856;2022-08-27T09:03:13;97583.25;;;19.39
24201;BMP280;2801;50.972;7.856;2022-08-27T09:05:56;97579.34;;;19.37
24201;BMP280;2801;50.972;7.856;2022-08-27T09:08:35;97589.41;;;19.33
24201;BMP280;2801;50.972;7.856;2022-08-27T09:13:55;97581.28;;;19.36
24201;BMP280;2801;50.972;7.856;2022-08-27T09:16:23;97584.41;;;19.38
24201;BMP280;2801;50.972;7.856;2022-08-27T09:18:50;97592.53;;;19.35
24201;BMP280;2801;50.972;7.856;2022-08-27T09:21:39;97580.44;;;19.29
24201;BMP280;2801;50.972;7.856;2022-08-27T09:26:46;97597.19;;;19.34
24201;BMP280;2801;50.972;7.856;2022-08-27T09:29:17;97597.19;;;19.34
24201;BMP280;2801;50.972;7.856;2022-08-27T09:31:57;97587.50;;;19.37
24201;BMP280;2801;50.972;7.856;2022-08-27T09:34:33;97585.94;;;19.36
24201;BMP280;2801;50.972;7.856;2022-08-27T09:45:10;97588.31;;;19.41
24201;BMP280;2801;50.972;7.856;2022-08-27T09:48:03;97594.16;;;19.43
24201;BMP280;2801;50.972;7.856;2022-08-27T09:50:40;97580.19;;;19.44
24201;BMP280;2801;50.972;7.856;2022-08-27T09:53:51;97588.72;;;19.43
24201;BMP280;2801;50.972;7.856;2022-08-27T09:56:44;97592.66;;;19.52
24201;BMP280;2801;50.972;7.856;2022-08-27T09:59:32;97590.00;;;19.59
24201;BMP280;2801;50.972;7.856;2022-08-27T10:02:22;97592.75;;;19.63
24201;BMP280;2801;50.972;7.856;2022-08-27T10:04:54;97590.44;;;19.68
24201;BMP280;2801;50.972;7.856;2022-08-27T10:07:45;97592.00;;;19.69
24201;BMP280;2801;50.972;7.856;2022-08-27T10:10:54;97595.53;;;19.73
24201;BMP280;2801;50.972;7.856;2022-08-27T10:13:51;97597.09;;;19.74
24201;BMP280;2801;50.972;7.856;2022-08-27T10:16:47;97590.88;;;19.77
24201;BMP280;2801;50.972;7.856;2022-08-27T10:25:14;97589.66;;;19.68
24201;BMP280;2801;50.972;7.856;2022-08-27T10:34:18;97599.13;;;19.88
24201;BMP280;2801;50.972;7.856;2022-08-27T10:40:03;97587.88;;;19.89
24201;BMP280;2801;50.972;7.856;2022-08-27T10:51:14;97591.81;;;20.02
24201;BMP280;2801;50.972;7.856;2022-08-27T10:54:06;97591.81;;;20.02
24201;BMP280;2801;50.972;7.856;2022-08-27T11:03:08;97593.84;;;20.12
24201;BMP280;2801;50.972;7.856;2022-08-27T11:05:47;97596.22;;;20.21
24201;BMP280;2801;50.972;7.856;2022-08-27T11:08:25;97591.59;;;20.32
24201;BMP280;2801;50.972;7.856;2022-08-27T11:11:05;97591.28;;;20.47
24201;BMP280;2801;50.972;7.856;2022-08-27T11:13:55;97585.44;;;20.45
24201;BMP280;2801;50.972;7.856;2022-08-27T11:16:40;97587.03;;;20.53
24201;BMP280;2801;50.972;7.856;2022-08-27T11:19:24;97590.16;;;20.62
24201;BMP280;2801;50.972;7.856;2022-08-27T11:22:13;97587.84;;;20.68
24201;BMP280;2801;50.972;7.856;2022-08-27T11:27:33;97589.81;;;20.81
24201;BMP280;2801;50.972;7.856;2022-08-27T11:30:08;97575.41;;;20.88
24201;BMP280;2801;50.972;7.856;2022-08-27T11:32:57;97585.19;;;20.92
24201;BMP280;2801;50.972;7.856;2022-08-27T11:38:44;97584.44;;;21.09
24201;BMP280;2801;50.972;7.856;2022-08-27T11:44:13;97577.03;;;21.41
24201;BMP280;2801;50.972;7.856;2022-08-27T11:47:23;97579.75;;;21.59
24201;BMP280;2801;50.972;7.856;2022-08-27T11:49:59;97582.88;;;21.68
24201;BMP280;2801;50.972;7.856;2022-08-27T11:52:40;97585.19;;;21.70
24201;BMP280;2801;50.972;7.856;2022-08-27T12:00:38;97586.75;;;21.60
24201;BMP280;2801;50.972;7.856;2022-08-27T12:03:29;97579.38;;;21.64
24201;BMP280;2801;50.972;7.856;2022-08-27T12:08:30;97581.72;;;21.83
24201;BMP280;2801;50.972;7.856;2022-08-27T12:14:10;97576.56;;;22.13
24201;BMP280;2801;50.972;7.856;2022-08-27T12:17:04;97575.75;;;22.20
24201;BMP280;2801;50.972;7.856;2022-08-27T12:31:47;97581.22;;;22.09
24201;BMP280;2801;50.972;7.856;2022-08-27T12:34:28;97585.16;;;22.05
24201;BMP280;2801;50.972;7.856;2022-08-27T12:36:55;97583.63;;;21.97
24201;BMP280;2801;50.972;7.856;2022-08-27T12:39:28;97583.59;;;22.00
24201;BMP280;2801;50.972;7.856;2022-08-27T12:41:55;97578.13;;;22.07
24201;BMP280;2801;50.972;7.856;2022-08-27T12:44:31;97586.66;;;22.23
24201;BMP280;2801;50.972;7.856;2022-08-27T12:47:05;97585.84;;;22.33
24201;BMP280;2801;50.972;7.856;2022-08-27T12:49:50;97583.84;;;22.51
24201;BMP280;2801;50.972;7.856;2022-08-27T12:55:52;97580.69;;;22.56
24201;BMP280;2801;50.972;7.856;2022-08-27T13:01:47;97574.28;;;22.84
24201;BMP280;2801;50.972;7.856;2022-08-27T13:04:24;97572.31;;;22.88
24201;BMP280;2801;50.972;7.856;2022-08-27T13:06:53;97574.66;;;22.89
24201;BMP280;2801;50.972;7.856;2022-08-27T13:09:37;97567.94;;;22.97
24201;BMP280;2801;50.972;7.856;2022-08-27T13:12:14;97567.91;;;23.04
24201;BMP280;2801;50.972;7.856;2022-08-27T13:14:43;97567.91;;;23.04
24201;BMP280;2801;50.972;7.856;2022-08-27T13:17:20;97564.44;;;22.97
24201;BMP280;2801;50.972;7.856;2022-08-27T13:20:22;97564.13;;;22.88
24201;BMP280;2801;50.972;7.856;2022-08-27T13:22:52;97568.38;;;22.92
24201;BMP280;2801;50.972;7.856;2022-08-27T13:25:30;97560.53;;;22.94
24201;BMP280;2801;50.972;7.856;2022-08-27T13:28:12;97562.97;;;22.85
24201;BMP280;2801;50.972;7.856;2022-08-27T13:30:44;97562.25;;;22.71
24201;BMP280;2801;50.972;7.856;2022-08-27T13:33:32;97557.31;;;22.41
24201;BMP280;2801;50.972;7.856;2022-08-27T13:36:01;97564.75;;;22.34
24201;BMP280;2801;50.972;7.856;2022-08-27T13:38:43;97565.59;;;22.20
24201;BMP280;2801;50.972;7.856;2022-08-27T13:41:29;97565.56;;;22.27
24201;BMP280;2801;50.972;7.856;2022-08-27T13:44:08;97560.06;;;22.38
24201;BMP280;2801;50.972;7.856;2022-08-27T13:46:49;97553.41;;;22.49
24201;BMP280;2801;50.972;7.856;2022-08-27T13:49:23;97559.25;;;22.51
24201;BMP280;2801;50.972;7.856;2022-08-27T13:52:06;97548.28;;;22.55
24201;BMP280;2801;50.972;7.856;2022-08-27T13:54:35;97553.72;;;22.62
24201;BMP280;2801;50.972;7.856;2022-08-27T13:57:08;97540.03;;;22.65
24201;BMP280;2801;50.972;7.856;2022-08-27T13:59:39;97537.97;;;22.83
24201;BMP280;2801;50.972;7.856;2022-08-27T14:07:36;97533.22;;;23.45
24201;BMP280;2801;50.972;7.856;2022-08-27T14:10:07;97518.94;;;23.64
24201;BMP280;2801;50.972;7.856;2022-08-27T14:12:39;97531.38;;;23.72
24201;BMP280;2801;50.972;7.856;2022-08-27T14:15:44;97517.94;;;23.85
24201;BMP280;2801;50.972;7.856;2022-08-27T14:18:32;97517.44;;;23.97
24201;BMP280;2801;50.972;7.856;2022-08-27T14:21:20;97517.22;;;24.14
24201;BMP280;2801;50.972;7.856;2022-08-27T14:23:47;97521.09;;;24.20
24201;BMP280;2801;50.972;7.856;2022-08-27T14:26:14;97523.34;;;24.25
24201;BMP280;2801;50.972;7.856;2022-08-27T14:28:44;97523.44;;;24.18
24201;BMP280;2801;50.972;7.856;2022-08-27T14:31:12;97530.19;;;24.10
24201;BMP280;2801;50.972;7.856;2022-08-27T14:33:40;97521.97;;;24.10
24201;BMP280;2801;50.972;7.856;2022-08-27T14:36:07;97517.06;;;23.95
24201;BMP280;2801;50.972;7.856;2022-08-27T14:38:38;97524.19;;;23.85
24201;BMP280;2801;50.972;7.856;2022-08-27T14:41:08;97519.09;;;23.87
24201;BMP280;2801;50.972;7.856;2022-08-27T14:43:35;97525.22;;;24.02
24201;BMP280;2801;50.972;7.856;2022-08-27T14:46:05;97523.50;;;24.15
24201;BMP280;2801;50.972;7.856;2022-08-27T14:48:34;97517.81;;;24.29
24201;BMP280;2801;50.972;7.856;2022-08-27T14:51:11;97520.84;;;24.38
24201;BMP280;2801;50.972;7.856;2022-08-27T14:53:39;97528.09;;;24.21
24201;BMP280;2801;50.972;7.856;2022-08-27T14:56:06;97529.06;;;24.08
24201;BMP280;2801;50.972;7.856;2022-08-27T14:58:33;97531.91;;;23.97
24201;BMP280;2801;50.972;7.856;2022-08-27T15:01:01;97526.00;;;24.02
24201;BMP280;2801;50.972;7.856;2022-08-27T15:03:29;97532.34;;;23.92
24201;BMP280;2801;50.972;7.856;2022-08-27T15:05:57;97536.81;;;23.76
24201;BMP280;2801;50.972;7.856;2022-08-27T15:08:24;97547.13;;;23.61
24201;BMP280;2801;50.972;7.856;2022-08-27T15:10:56;97541.09;;;23.40
24201;BMP280;2801;50.972;7.856;2022-08-27T15:13:23;97544.00;;;23.15
24201;BMP280;2801;50.972;7.856;2022-08-27T15:15:50;97551.53;;;22.97
24201;BMP280;2801;50.972;7.856;2022-08-27T15:18:18;97552.78;;;22.89
24201;BMP280;2801;50.972;7.856;2022-08-27T15:20:46;97550.91;;;22.72
24201;BMP280;2801;50.972;7.856;2022-08-27T15:23:14;97551.00;;;22.62
24201;BMP280;2801;50.972;7.856;2022-08-27T15:25:44;97551.38;;;22.60
24201;BMP280;2801;50.972;7.856;2022-08-27T15:28:11;97558.06;;;22.52
24201;BMP280;2801;50.972;7.856;2022-08-27T15:30:38;97560.84;;;22.31
24201;BMP280;2801;50.972;7.856;2022-08-27T15:33:06;97559.34;;;22.16
24201;BMP280;2801;50.972;7.856;2022-08-27T15:35:33;97559.44;;;22.02
24201;BMP280;2801;50.972;7.856;2022-08-27T15:38:00;97559.44;;;22.02
24201;BMP280;2801;50.972;7.856;2022-08-27T15:40:32;97561.00;;;21.89
24201;BMP280;2801;50.972;7.856;2022-08-27T15:43:04;97575.88;;;21.78
24201;BMP280;2801;50.972;7.856;2022-08-27T15:45:31;97565.34;;;21.76
24201;BMP280;2801;50.972;7.856;2022-08-27T15:47:59;97570.41;;;21.74
24201;BMP280;2801;50.972;7.856;2022-08-27T15:50:29;97574.28;;;21.70
24201;BMP280;2801;50.972;7.856;2022-08-27T15:53:02;97573.13;;;21.57
24201;BMP280;2801;50.972;7.856;2022-08-27T15:55:38;97577.44;;;21.47
24201;BMP280;2801;50.972;7.856;2022-08-27T15:58:06;97566.13;;;21.34
24201;BMP280;2801;50.972;7.856;2022-08-27T16:00:36;97578.63;;;21.28
24201;BMP280;2801;50.972;7.856;2022-08-27T16:03:09;97574.31;;;21.24
24201;BMP280;2801;50.972;7.856;2022-08-27T16:05:40;97573.94;;;21.25
24201;BMP280;2801;50.972;7.856;2022-08-27T16:08:09;97566.16;;;21.31
24201;BMP280;2801;50.972;7.856;2022-08-27T16:10:37;97562.63;;;21.34
24201;BMP280;2801;50.972;7.856;2022-08-27T16:13:04;97568.84;;;21.34
24201;BMP280;2801;50.972;7.856;2022-08-27T16:15:34;97564.56;;;21.30
24201;BMP280;2801;50.972;7.856;2022-08-27T16:18:03;97567.72;;;21.28
24201;BMP280;2801;50.972;7.856;2022-08-27T16:20:30;97568.88;;;21.31
24201;BMP280;2801;50.972;7.856;2022-08-27T16:22:57;97566.16;;;21.31
24201;BMP280;2801;50.972;7.856;2022-08-27T16:25:24;97568.09;;;21.27
24201;BMP280;2801;50.972;7.856;2022-08-27T16:27:52;97569.63;;;21.21